sensor_id;sensor_type;location;lat;lon;timestamp;temperature;humidity
19188;DHT22;9726;52.198;8.792;2024-02-15T00:00:01;11.50;99.90
19188;DHT22;9726;52.198;8.792;2024-02-15T00:02:30;11.50;99.90
19188;DHT22;9726;52.198;8.792;2024-02-15T00:04:57;11.50;99.90
19188;DHT22;9726;52.198;8.792;2024-02-15T00:07:24;11.40;99.90
19188;DHT22;9726;52.198;8.792;2024-02-15T00:09:53;11.40;99.90
19188;DHT22;9726;52.198;8.792;2024-02-15T00:12:23;11.40;99.90
19188;DHT22;9726;52.198;8.792;2024-02-15T00:14:50;11.50;99.90
19188;DHT22;9726;52.198;8.792;2024-02-15T00:17:17;11.40;99.90
19188;DHT22;9726;52.198;8.792;2024-02-15T00:19:45;11.40;99.90
19188;DHT22;9726;52.198;8.792;2024-02-15T00:22:13;11.40;99.90
19188;DHT22;9726;52.198;8.792;2024-02-15T00:24:40;11.40;99.90
19188;DHT22;9726;52.198;8.792;2024-02-15T00:27:10;11.40;99.90
19188;DHT22;9726;52.198;8.792;2024-02-15T00:29:38;11.40;99.90
19188;DHT22;9726;52.198;8.792;2024-02-15T00:32:07;11.40;99.90
19188;DHT22;9726;52.198;8.792;2024-02-15T00:34:36;11.40;99.90
19188;DHT22;9726;52.198;8.792;2024-02-15T00:37:05;11.40;99.90
19188;DHT22;9726;52.198;8.792;2024-02-15T00:39:32;11.40;99.90
19188;DHT22;9726;52.198;8.792;2024-02-15T00:41:59;11.40;99.90
19188;DHT22;9726;52.198;8.792;2024-02-15T00:44:30;11.40;99.90
19188;DHT22;9726;52.198;8.792;2024-02-15T00:46:58;11.40;99.90
19188;DHT22;9726;52.198;8.792;2024-02-15T00:49:25;11.40;99.90
19188;DHT22;9726;52.198;8.792;2024-02-15T00:51:55;11.40;99.90
19188;DHT22;9726;52.198;8.792;2024-02-15T00:54:22;11.40;99.90
19188;DHT22;9726;52.198;8.792;2024-02-15T00:56:50;11.40;99.90
19188;DHT22;9726;52.198;8.792;2024-02-15T00:59:18;11.40;99.90
19188;DHT22;9726;52.198;8.792;2024-02-15T01:01:46;11.40;99.90
19188;DHT22;9726;52.198;8.792;2024-02-15T01:04:15;11.40;99.90
19188;DHT22;9726;52.198;8.792;2024-02-15T01:06:42;11.40;99.90
19188;DHT22;9726;52.198;8.792;2024-02-15T01:09:09;11.40;99.90
19188;DHT22;9726;52.198;8.792;2024-02-15T01:11:37;11.40;99.90
19188;DHT22;9726;52.198;8.792;2024-02-15T01:14:04;11.40;99.90
19188;DHT22;9726;52.198;8.792;2024-02-15T01:16:31;11.40;99.90
19188;DHT22;9726;52.198;8.792;2024-02-15T01:18:59;11.40;99.90
19188;DHT22;9726;52.198;8.792;2024-02-15T01:21:26;11.40;99.90
19188;DHT22;9726;52.198;8.792;2024-02-15T01:23:53;11.50;99.90
19188;DHT22;9726;52.198;8.792;2024-02-15T01:26:21;11.40;99.90
19188;DHT22;9726;52.198;8.792;2024-02-15T01:28:48;11.40;99.90
19188;DHT22;9726;52.198;8.792;2024-02-15T01:31:15;11.40;99.90
19188;DHT22;9726;52.198;8.792;2024-02-15T01:33:44;11.50;99.90
19188;DHT22;9726;52.198;8.792;2024-02-15T01:36:16;11.50;99.90
19188;DHT22;9726;52.198;8.792;2024-02-15T01:38:44;11.50;99.90
19188;DHT22;9726;52.198;8.792;2024-02-15T01:41:12;11.50;99.90
19188;DHT22;9726;52.198;8.792;2024-02-15T01:43:44;11.40;99.90
19188;DHT22;9726;52.198;8.792;2024-02-15T01:46:16;11.50;99.90
19188;DHT22;9726;52.198;8.792;2024-02-15T01:48:45;11.40;99.90
19188;DHT22;9726;52.198;8.792;2024-02-15T01:51:14;11.40;99.90
19188;DHT22;9726;52.198;8.792;2024-02-15T01:53:43;11.40;99.90
19188;DHT22;9726;52.198;8.792;2024-02-15T01:56:13;11.40;99.90
19188;DHT22;9726;52.198;8.792;2024-02-15T01:58:42;11.40;99.90
19188;DHT22;9726;52.198;8.792;2024-02-15T02:01:10;11.40;99.90
19188;DHT22;9726;52.198;8.792;2024-02-15T02:03:39;11.40;99.90
19188;DHT22;9726;52.198;8.792;2024-02-15T02:06:07;11.40;99.90
19188;DHT22;9726;52.198;8.792;2024-02-15T02:08:34;11.40;99.90
19188;DHT22;9726;52.198;8.792;2024-02-15T02:11:01;11.40;99.90
19188;DHT22;9726;52.198;8.792;2024-02-15T02:13:29;11.40;99.90
19188;DHT22;9726;52.198;8.792;2024-02-15T02:15:57;11.40;99.90
19188;DHT22;9726;52.198;8.792;2024-02-15T02:18:26;11.50;99.90
19188;DHT22;9726;52.198;8.792;2024-02-15T02:20:53;11.50;99.90
19188;DHT22;9726;52.198;8.792;2024-02-15T02:23:25;11.50;99.90
19188;DHT22;9726;52.198;8.792;2024-02-15T02:25:54;11.40;99.90
19188;DHT22;9726;52.198;8.792;2024-02-15T02:28:22;11.40;99.90
19188;DHT22;9726;52.198;8.792;2024-02-15T02:30:50;11.40;99.90
19188;DHT22;9726;52.198;8.792;2024-02-15T02:33:17;11.40;99.90
19188;DHT22;9726;52.198;8.792;2024-02-15T02:35:47;11.50;99.90
19188;DHT22;9726;52.198;8.792;2024-02-15T02:38:15;11.40;99.90
19188;DHT22;9726;52.198;8.792;2024-02-15T02:40:43;11.50;99.90
19188;DHT22;9726;52.198;8.792;2024-02-15T02:43:10;11.50;99.90
19188;DHT22;9726;52.198;8.792;2024-02-15T02:45:37;11.50;99.90
19188;DHT22;9726;52.198;8.792;2024-02-15T02:48:05;11.50;99.90
19188;DHT22;9726;52.198;8.792;2024-02-15T02:50:32;11.40;99.90
19188;DHT22;9726;52.198;8.792;2024-02-15T02:53:00;11.50;99.90
19188;DHT22;9726;52.198;8.792;2024-02-15T02:55:27;11.50;99.90
19188;DHT22;9726;52.198;8.792;2024-02-15T02:57:55;11.40;99.90
19188;DHT22;9726;52.198;8.792;2024-02-15T03:00:22;11.50;99.90
19188;DHT22;9726;52.198;8.792;2024-02-15T03:02:50;11.50;99.90
19188;DHT22;9726;52.198;8.792;2024-02-15T03:05:17;11.40;99.90
19188;DHT22;9726;52.198;8.792;2024-02-15T03:07:48;11.40;99.90
19188;DHT22;9726;52.198;8.792;2024-02-15T03:10:17;11.40;99.90
19188;DHT22;9726;52.198;8.792;2024-02-15T03:12:45;11.40;99.90
19188;DHT22;9726;52.198;8.792;2024-02-15T03:15:16;11.40;99.90
19188;DHT22;9726;52.198;8.792;2024-02-15T03:17:46;11.40;99.90
19188;DHT22;9726;52.198;8.792;2024-02-15T03:20:14;11.40;99.90
19188;DHT22;9726;52.198;8.792;2024-02-15T03:22:51;11.40;99.90
19188;DHT22;9726;52.198;8.792;2024-02-15T03:25:19;11.40;99.90
19188;DHT22;9726;52.198;8.792;2024-02-15T03:27:47;11.40;99.90
19188;DHT22;9726;52.198;8.792;2024-02-15T03:30:14;11.40;99.90
19188;DHT22;9726;52.198;8.792;2024-02-15T03:32:41;11.40;99.90
19188;DHT22;9726;52.198;8.792;2024-02-15T03:35:09;11.40;99.90
19188;DHT22;9726;52.198;8.792;2024-02-15T03:37:36;11.40;99.90
19188;DHT22;9726;52.198;8.792;2024-02-15T03:40:05;11.40;99.90
19188;DHT22;9726;52.198;8.792;2024-02-15T03:42:33;11.40;99.90
19188;DHT22;9726;52.198;8.792;2024-02-15T03:45:00;11.40;99.90
19188;DHT22;9726;52.198;8.792;2024-02-15T03:47:29;11.40;99.90
19188;DHT22;9726;52.198;8.792;2024-02-15T03:49:57;11.40;99.90
19188;DHT22;9726;52.198;8.792;2024-02-15T03:52:25;11.30;99.90
19188;DHT22;9726;52.198;8.792;2024-02-15T03:54:52;11.20;99.90
19188;DHT22;9726;52.198;8.792;2024-02-15T03:57:19;11.20;99.90
19188;DHT22;9726;52.198;8.792;2024-02-15T03:59:47;11.20;99.90
19188;DHT22;9726;52.198;8.792;2024-02-15T04:02:20;11.30;99.90
19188;DHT22;9726;52.198;8.792;2024-02-15T04:04:47;11.30;99.90
19188;DHT22;9726;52.198;8.792;2024-02-15T04:07:16;11.30;99.90
19188;DHT22;9726;52.198;8.792;2024-02-15T04:09:43;11.40;99.90
19188;DHT22;9726;52.198;8.792;2024-02-15T04:12:12;11.40;99.90
19188;DHT22;9726;52.198;8.792;2024-02-15T04:14:41;11.40;99.90
19188;DHT22;9726;52.198;8.792;2024-02-15T04:17:08;11.40;99.90
19188;DHT22;9726;52.198;8.792;2024-02-15T04:19:35;11.40;99.90
19188;DHT22;9726;52.198;8.792;2024-02-15T04:22:04;11.40;99.90
19188;DHT22;9726;52.198;8.792;2024-02-15T04:24:36;11.40;99.90
19188;DHT22;9726;52.198;8.792;2024-02-15T04:27:07;11.40;99.90
19188;DHT22;9726;52.198;8.792;2024-02-15T04:29:39;11.40;99.90
19188;DHT22;9726;52.198;8.792;2024-02-15T04:32:11;11.50;99.90
19188;DHT22;9726;52.198;8.792;2024-02-15T04:34:42;11.50;99.90
19188;DHT22;9726;52.198;8.792;2024-02-15T04:37:09;11.50;99.90
19188;DHT22;9726;52.198;8.792;2024-02-15T04:39:36;11.50;99.90
19188;DHT22;9726;52.198;8.792;2024-02-15T04:42:04;11.50;99.90
19188;DHT22;9726;52.198;8.792;2024-02-15T04:44:34;11.50;99.90
19188;DHT22;9726;52.198;8.792;2024-02-15T04:47:02;11.50;99.90
19188;DHT22;9726;52.198;8.792;2024-02-15T04:49:34;11.50;99.90
19188;DHT22;9726;52.198;8.792;2024-02-15T04:52:05;11.50;99.90
19188;DHT22;9726;52.198;8.792;2024-02-15T04:54:33;11.50;99.90
19188;DHT22;9726;52.198;8.792;2024-02-15T04:57:00;11.50;99.90
19188;DHT22;9726;52.198;8.792;2024-02-15T04:59:28;11.60;99.90
19188;DHT22;9726;52.198;8.792;2024-02-15T05:01:57;11.50;99.90
19188;DHT22;9726;52.198;8.792;2024-02-15T05:04:25;11.60;99.90
19188;DHT22;9726;52.198;8.792;2024-02-15T05:06:52;11.60;99.90
19188;DHT22;9726;52.198;8.792;2024-02-15T05:09:20;11.60;99.90
19188;DHT22;9726;52.198;8.792;2024-02-15T05:11:47;11.60;99.90
19188;DHT22;9726;52.198;8.792;2024-02-15T05:14:16;11.60;99.90
19188;DHT22;9726;52.198;8.792;2024-02-15T05:16:47;11.60;99.90
19188;DHT22;9726;52.198;8.792;2024-02-15T05:19:16;11.60;99.90
19188;DHT22;9726;52.198;8.792;2024-02-15T05:21:45;11.50;99.90
19188;DHT22;9726;52.198;8.792;2024-02-15T05:24:14;11.50;99.90
19188;DHT22;9726;52.198;8.792;2024-02-15T05:26:45;11.50;99.90
19188;DHT22;9726;52.198;8.792;2024-02-15T05:29:17;11.50;99.90
19188;DHT22;9726;52.198;8.792;2024-02-15T05:31:44;11.50;99.90
19188;DHT22;9726;52.198;8.792;2024-02-15T05:34:12;11.50;99.90
19188;DHT22;9726;52.198;8.792;2024-02-15T05:36:40;11.50;99.90
19188;DHT22;9726;52.198;8.792;2024-02-15T05:39:07;11.60;99.90
19188;DHT22;9726;52.198;8.792;2024-02-15T05:41:35;11.50;99.90
19188;DHT22;9726;52.198;8.792;2024-02-15T05:44:02;11.60;99.90
19188;DHT22;9726;52.198;8.792;2024-02-15T05:46:34;11.50;99.90
19188;DHT22;9726;52.198;8.792;2024-02-15T05:49:05;11.60;99.90
19188;DHT22;9726;52.198;8.792;2024-02-15T05:51:32;11.50;99.90
19188;DHT22;9726;52.198;8.792;2024-02-15T05:54:01;11.50;99.90
19188;DHT22;9726;52.198;8.792;2024-02-15T05:56:29;11.50;99.90
19188;DHT22;9726;52.198;8.792;2024-02-15T05:58:56;11.50;99.90
19188;DHT22;9726;52.198;8.792;2024-02-15T06:01:24;11.50;99.90
19188;DHT22;9726;52.198;8.792;2024-02-15T06:03:51;11.50;99.90
19188;DHT22;9726;52.198;8.792;2024-02-15T06:06:22;11.60;99.90
19188;DHT22;9726;52.198;8.792;2024-02-15T06:08:50;11.60;99.90
19188;DHT22;9726;52.198;8.792;2024-02-15T06:11:20;11.60;99.90
19188;DHT22;9726;52.198;8.792;2024-02-15T06:13:48;11.60;99.90
19188;DHT22;9726;52.198;8.792;2024-02-15T06:16:15;11.50;99.90
19188;DHT22;9726;52.198;8.792;2024-02-15T06:18:46;11.50;99.90
19188;DHT22;9726;52.198;8.792;2024-02-15T06:21:14;11.50;99.90
19188;DHT22;9726;52.198;8.792;2024-02-15T06:23:42;11.50;99.90
19188;DHT22;9726;52.198;8.792;2024-02-15T06:26:09;11.50;99.90
19188;DHT22;9726;52.198;8.792;2024-02-15T06:28:36;11.50;99.90
19188;DHT22;9726;52.198;8.792;2024-02-15T06:31:22;11.40;99.90
19188;DHT22;9726;52.198;8.792;2024-02-15T06:34:08;11.40;99.90
19188;DHT22;9726;52.198;8.792;2024-02-15T06:36:56;11.40;99.90
19188;DHT22;9726;52.198;8.792;2024-02-15T06:39:42;11.40;99.90
19188;DHT22;9726;52.198;8.792;2024-02-15T06:42:15;11.40;99.90
19188;DHT22;9726;52.198;8.792;2024-02-15T06:44:47;11.40;99.90
19188;DHT22;9726;52.198;8.792;2024-02-15T06:47:15;11.40;99.90
19188;DHT22;9726;52.198;8.792;2024-02-15T06:49:48;11.40;99.90
19188;DHT22;9726;52.198;8.792;2024-02-15T06:52:21;11.40;99.80
19188;DHT22;9726;52.198;8.792;2024-02-15T06:54:49;11.40;99.70
19188;DHT22;9726;52.198;8.792;2024-02-15T06:57:18;11.50;99.40
19188;DHT22;9726;52.198;8.792;2024-02-15T06:59:47;11.40;99.30
19188;DHT22;9726;52.198;8.792;2024-02-15T07:02:14;11.50;99.10
19188;DHT22;9726;52.198;8.792;2024-02-15T07:04:41;11.40;99.10
19188;DHT22;9726;52.198;8.792;2024-02-15T07:07:08;11.40;98.90
19188;DHT22;9726;52.198;8.792;2024-02-15T07:09:36;11.40;98.80
19188;DHT22;9726;52.198;8.792;2024-02-15T07:12:03;11.40;98.90
19188;DHT22;9726;52.198;8.792;2024-02-15T07:14:31;11.40;98.60
19188;DHT22;9726;52.198;8.792;2024-02-15T07:16:58;11.40;98.50
19188;DHT22;9726;52.198;8.792;2024-02-15T07:19:26;11.50;98.30
19188;DHT22;9726;52.198;8.792;2024-02-15T07:21:55;11.50;98.00
19188;DHT22;9726;52.198;8.792;2024-02-15T07:24:23;11.50;98.00
19188;DHT22;9726;52.198;8.792;2024-02-15T07:26:54;11.50;97.90
19188;DHT22;9726;52.198;8.792;2024-02-15T07:29:23;11.50;97.70
19188;DHT22;9726;52.198;8.792;2024-02-15T07:31:51;11.50;97.70
19188;DHT22;9726;52.198;8.792;2024-02-15T07:34:18;11.60;97.60
19188;DHT22;9726;52.198;8.792;2024-02-15T07:36:46;11.60;96.90
19188;DHT22;9726;52.198;8.792;2024-02-15T07:39:13;11.60;97.10
19188;DHT22;9726;52.198;8.792;2024-02-15T07:41:56;11.70;96.70
19188;DHT22;9726;52.198;8.792;2024-02-15T07:44:28;11.70;96.40
19188;DHT22;9726;52.198;8.792;2024-02-15T07:46:57;11.70;96.20
19188;DHT22;9726;52.198;8.792;2024-02-15T07:49:24;11.80;96.00
19188;DHT22;9726;52.198;8.792;2024-02-15T07:51:52;11.80;95.90
19188;DHT22;9726;52.198;8.792;2024-02-15T07:54:23;11.80;95.80
19188;DHT22;9726;52.198;8.792;2024-02-15T07:56:50;11.90;95.50
19188;DHT22;9726;52.198;8.792;2024-02-15T07:59:18;11.90;95.20
19188;DHT22;9726;52.198;8.792;2024-02-15T08:01:45;11.90;94.90
19188;DHT22;9726;52.198;8.792;2024-02-15T08:04:14;12.00;94.40
19188;DHT22;9726;52.198;8.792;2024-02-15T08:06:44;12.10;94.40
19188;DHT22;9726;52.198;8.792;2024-02-15T08:09:11;12.10;93.90
19188;DHT22;9726;52.198;8.792;2024-02-15T08:11:41;12.20;93.20
19188;DHT22;9726;52.198;8.792;2024-02-15T08:14:09;12.20;92.70
19188;DHT22;9726;52.198;8.792;2024-02-15T08:16:40;12.20;92.70
19188;DHT22;9726;52.198;8.792;2024-02-15T08:19:08;12.30;92.20
19188;DHT22;9726;52.198;8.792;2024-02-15T08:21:37;12.40;91.60
19188;DHT22;9726;52.198;8.792;2024-02-15T08:24:04;12.40;91.40
19188;DHT22;9726;52.198;8.792;2024-02-15T08:26:37;12.40;90.90
19188;DHT22;9726;52.198;8.792;2024-02-15T08:29:11;12.50;91.10
19188;DHT22;9726;52.198;8.792;2024-02-15T08:31:38;12.50;90.50
19188;DHT22;9726;52.198;8.792;2024-02-15T08:34:05;12.60;90.40
19188;DHT22;9726;52.198;8.792;2024-02-15T08:36:33;12.70;90.10
19188;DHT22;9726;52.198;8.792;2024-02-15T08:39:00;12.70;89.40
19188;DHT22;9726;52.198;8.792;2024-02-15T08:41:28;12.70;89.00
19188;DHT22;9726;52.198;8.792;2024-02-15T08:43:55;12.70;88.50
19188;DHT22;9726;52.198;8.792;2024-02-15T08:46:28;12.70;88.60
19188;DHT22;9726;52.198;8.792;2024-02-15T08:48:55;12.70;88.70
19188;DHT22;9726;52.198;8.792;2024-02-15T08:51:22;12.70;89.00
19188;DHT22;9726;52.198;8.792;2024-02-15T08:53:51;12.70;89.70
19188;DHT22;9726;52.198;8.792;2024-02-15T08:56:18;12.70;89.60
19188;DHT22;9726;52.198;8.792;2024-02-15T08:58:45;12.70;89.50
19188;DHT22;9726;52.198;8.792;2024-02-15T09:01:14;12.70;90.10
19188;DHT22;9726;52.198;8.792;2024-02-15T09:03:41;12.70;90.50
19188;DHT22;9726;52.198;8.792;2024-02-15T09:06:12;12.80;90.10
19188;DHT22;9726;52.198;8.792;2024-02-15T09:08:40;12.90;90.30
19188;DHT22;9726;52.198;8.792;2024-02-15T09:11:07;12.90;89.70
19188;DHT22;9726;52.198;8.792;2024-02-15T09:13:39;13.00;89.50
19188;DHT22;9726;52.198;8.792;2024-02-15T09:16:06;12.90;89.50
19188;DHT22;9726;52.198;8.792;2024-02-15T09:18:33;12.90;89.50
19188;DHT22;9726;52.198;8.792;2024-02-15T09:21:00;12.90;89.80
19188;DHT22;9726;52.198;8.792;2024-02-15T09:23:28;12.90;90.30
19188;DHT22;9726;52.198;8.792;2024-02-15T09:25:55;12.90;90.30
19188;DHT22;9726;52.198;8.792;2024-02-15T09:28:22;12.90;91.40
19188;DHT22;9726;52.198;8.792;2024-02-15T09:30:50;12.90;90.80
19188;DHT22;9726;52.198;8.792;2024-02-15T09:33:20;12.90;91.30
19188;DHT22;9726;52.198;8.792;2024-02-15T09:35:47;12.90;91.40
19188;DHT22;9726;52.198;8.792;2024-02-15T09:38:15;12.90;91.80
19188;DHT22;9726;52.198;8.792;2024-02-15T09:40:44;12.90;91.70
19188;DHT22;9726;52.198;8.792;2024-02-15T09:43:11;13.00;91.60
19188;DHT22;9726;52.198;8.792;2024-02-15T09:45:42;13.00;91.80
19188;DHT22;9726;52.198;8.792;2024-02-15T09:48:10;13.00;91.90
19188;DHT22;9726;52.198;8.792;2024-02-15T09:50:42;13.00;91.10
19188;DHT22;9726;52.198;8.792;2024-02-15T09:53:12;13.00;91.20
19188;DHT22;9726;52.198;8.792;2024-02-15T09:55:40;13.10;91.10
19188;DHT22;9726;52.198;8.792;2024-02-15T09:58:11;13.10;90.70
19188;DHT22;9726;52.198;8.792;2024-02-15T10:00:40;13.10;90.40
19188;DHT22;9726;52.198;8.792;2024-02-15T10:03:07;13.00;90.20
19188;DHT22;9726;52.198;8.792;2024-02-15T10:05:37;13.00;90.90
19188;DHT22;9726;52.198;8.792;2024-02-15T10:08:07;12.90;90.70
19188;DHT22;9726;52.198;8.792;2024-02-15T10:10:37;12.90;90.80
19188;DHT22;9726;52.198;8.792;2024-02-15T10:13:04;12.80;91.40
19188;DHT22;9726;52.198;8.792;2024-02-15T10:15:38;12.80;92.00
19188;DHT22;9726;52.198;8.792;2024-02-15T10:18:09;12.80;91.70
19188;DHT22;9726;52.198;8.792;2024-02-15T10:20:42;12.70;92.50
19188;DHT22;9726;52.198;8.792;2024-02-15T10:23:14;12.80;92.80
19188;DHT22;9726;52.198;8.792;2024-02-15T10:25:45;12.90;92.50
19188;DHT22;9726;52.198;8.792;2024-02-15T10:28:14;12.90;92.60
19188;DHT22;9726;52.198;8.792;2024-02-15T10:30:43;13.00;93.00
19188;DHT22;9726;52.198;8.792;2024-02-15T10:33:26;13.10;92.90
19188;DHT22;9726;52.198;8.792;2024-02-15T10:36:06;13.10;91.90
19188;DHT22;9726;52.198;8.792;2024-02-15T10:38:38;13.20;92.50
19188;DHT22;9726;52.198;8.792;2024-02-15T10:41:07;13.00;92.80
19188;DHT22;9726;52.198;8.792;2024-02-15T10:43:38;12.90;93.10
19188;DHT22;9726;52.198;8.792;2024-02-15T10:46:07;12.80;93.20
19188;DHT22;9726;52.198;8.792;2024-02-15T10:48:37;12.80;93.00
19188;DHT22;9726;52.198;8.792;2024-02-15T10:51:10;12.70;93.60
19188;DHT22;9726;52.198;8.792;2024-02-15T10:53:41;12.60;93.70
19188;DHT22;9726;52.198;8.792;2024-02-15T10:56:20;12.60;94.40
19188;DHT22;9726;52.198;8.792;2024-02-15T10:59:16;12.50;95.10
19188;DHT22;9726;52.198;8.792;2024-02-15T11:01:49;12.40;95.30
19188;DHT22;9726;52.198;8.792;2024-02-15T11:11:35;12.30;96.20
19188;DHT22;9726;52.198;8.792;2024-02-15T11:14:31;12.30;96.50
19188;DHT22;9726;52.198;8.792;2024-02-15T11:17:02;12.20;96.70
19188;DHT22;9726;52.198;8.792;2024-02-15T11:22:10;12.20;97.30
19188;DHT22;9726;52.198;8.792;2024-02-15T11:24:49;12.30;97.30
19188;DHT22;9726;52.198;8.792;2024-02-15T11:27:27;12.30;97.00
19188;DHT22;9726;52.198;8.792;2024-02-15T11:29:59;12.30;96.80
19188;DHT22;9726;52.198;8.792;2024-02-15T11:32:49;12.40;96.60
19188;DHT22;9726;52.198;8.792;2024-02-15T11:35:25;12.40;96.60
19188;DHT22;9726;52.198;8.792;2024-02-15T11:37:58;12.40;96.80
19188;DHT22;9726;52.198;8.792;2024-02-15T11:43:08;12.40;96.30
19188;DHT22;9726;52.198;8.792;2024-02-15T11:45:37;12.40;96.60
19188;DHT22;9726;52.198;8.792;2024-02-15T11:48:10;12.40;96.50
19188;DHT22;9726;52.198;8.792;2024-02-15T11:50:39;12.40;96.10
19188;DHT22;9726;52.198;8.792;2024-02-15T11:53:08;12.40;96.80
19188;DHT22;9726;52.198;8.792;2024-02-15T11:55:40;12.40;95.90
19188;DHT22;9726;52.198;8.792;2024-02-15T11:58:09;12.30;96.50
19188;DHT22;9726;52.198;8.792;2024-02-15T12:00:37;12.30;96.40
19188;DHT22;9726;52.198;8.792;2024-02-15T12:03:24;12.30;96.20
19188;DHT22;9726;52.198;8.792;2024-02-15T12:06:27;12.30;96.40
19188;DHT22;9726;52.198;8.792;2024-02-15T12:09:19;12.30;96.70
19188;DHT22;9726;52.198;8.792;2024-02-15T12:12:09;12.40;97.20
19188;DHT22;9726;52.198;8.792;2024-02-15T12:15:02;12.40;97.20
19188;DHT22;9726;52.198;8.792;2024-02-15T12:17:51;12.40;97.30
19188;DHT22;9726;52.198;8.792;2024-02-15T12:20:37;12.60;96.80
19188;DHT22;9726;52.198;8.792;2024-02-15T12:23:05;12.70;96.50
19188;DHT22;9726;52.198;8.792;2024-02-15T12:25:34;12.90;96.10
19188;DHT22;9726;52.198;8.792;2024-02-15T12:28:03;13.10;95.40
19188;DHT22;9726;52.198;8.792;2024-02-15T12:30:34;13.20;94.90
19188;DHT22;9726;52.198;8.792;2024-02-15T12:33:13;13.40;93.80
19188;DHT22;9726;52.198;8.792;2024-02-15T12:35:47;13.40;93.10
19188;DHT22;9726;52.198;8.792;2024-02-15T12:38:15;13.50;92.70
19188;DHT22;9726;52.198;8.792;2024-02-15T12:40:45;13.40;92.40
19188;DHT22;9726;52.198;8.792;2024-02-15T12:43:15;13.40;92.70
19188;DHT22;9726;52.198;8.792;2024-02-15T12:45:43;13.60;93.00
19188;DHT22;9726;52.198;8.792;2024-02-15T12:48:10;13.70;91.40
19188;DHT22;9726;52.198;8.792;2024-02-15T12:50:38;13.80;91.60
19188;DHT22;9726;52.198;8.792;2024-02-15T12:53:05;13.80;91.10
19188;DHT22;9726;52.198;8.792;2024-02-15T12:55:35;13.80;91.10
19188;DHT22;9726;52.198;8.792;2024-02-15T12:58:07;13.70;90.80
19188;DHT22;9726;52.198;8.792;2024-02-15T13:00:40;13.80;90.80
19188;DHT22;9726;52.198;8.792;2024-02-15T13:03:09;13.80;90.50
19188;DHT22;9726;52.198;8.792;2024-02-15T13:05:41;13.80;89.60
19188;DHT22;9726;52.198;8.792;2024-02-15T13:08:09;13.90;88.40
19188;DHT22;9726;52.198;8.792;2024-02-15T13:10:44;14.00;88.30
19188;DHT22;9726;52.198;8.792;2024-02-15T13:13:12;14.00;87.40
19188;DHT22;9726;52.198;8.792;2024-02-15T13:15:42;14.20;86.70
19188;DHT22;9726;52.198;8.792;2024-02-15T13:18:10;14.30;86.70
19188;DHT22;9726;52.198;8.792;2024-02-15T13:20:38;14.40;85.70
19188;DHT22;9726;52.198;8.792;2024-02-15T13:23:10;14.50;84.40
19188;DHT22;9726;52.198;8.792;2024-02-15T13:25:52;14.60;84.50
19188;DHT22;9726;52.198;8.792;2024-02-15T13:28:20;14.60;83.80
19188;DHT22;9726;52.198;8.792;2024-02-15T13:30:47;14.60;83.40
19188;DHT22;9726;52.198;8.792;2024-02-15T13:33:16;14.50;83.10
19188;DHT22;9726;52.198;8.792;2024-02-15T13:35:45;14.50;83.10
19188;DHT22;9726;52.198;8.792;2024-02-15T13:38:18;14.50;82.20
19188;DHT22;9726;52.198;8.792;2024-02-15T13:40:51;14.50;82.20
19188;DHT22;9726;52.198;8.792;2024-02-15T13:43:22;14.50;82.10
19188;DHT22;9726;52.198;8.792;2024-02-15T13:45:49;14.50;81.80
19188;DHT22;9726;52.198;8.792;2024-02-15T13:48:16;14.60;82.10
19188;DHT22;9726;52.198;8.792;2024-02-15T13:50:44;14.70;81.70
19188;DHT22;9726;52.198;8.792;2024-02-15T13:53:12;14.70;81.80
19188;DHT22;9726;52.198;8.792;2024-02-15T13:55:41;14.70;80.70
19188;DHT22;9726;52.198;8.792;2024-02-15T13:58:08;14.50;81.30
19188;DHT22;9726;52.198;8.792;2024-02-15T14:00:40;14.60;80.80
19188;DHT22;9726;52.198;8.792;2024-02-15T14:03:11;14.60;79.50
19188;DHT22;9726;52.198;8.792;2024-02-15T14:05:38;14.50;79.80
19188;DHT22;9726;52.198;8.792;2024-02-15T14:08:08;14.50;79.80
19188;DHT22;9726;52.198;8.792;2024-02-15T14:10:39;14.40;79.60
19188;DHT22;9726;52.198;8.792;2024-02-15T14:13:06;14.40;79.80
19188;DHT22;9726;52.198;8.792;2024-02-15T14:15:35;14.40;79.70
19188;DHT22;9726;52.198;8.792;2024-02-15T14:18:07;14.50;80.00
19188;DHT22;9726;52.198;8.792;2024-02-15T14:20:37;14.50;79.60
19188;DHT22;9726;52.198;8.792;2024-02-15T14:23:05;14.50;79.80
19188;DHT22;9726;52.198;8.792;2024-02-15T14:25:33;14.60;79.90
19188;DHT22;9726;52.198;8.792;2024-02-15T14:28:01;14.60;79.50
19188;DHT22;9726;52.198;8.792;2024-02-15T14:30:30;14.60;79.00
19188;DHT22;9726;52.198;8.792;2024-02-15T14:33:16;14.70;79.20
19188;DHT22;9726;52.198;8.792;2024-02-15T14:35:49;14.80;78.60
19188;DHT22;9726;52.198;8.792;2024-02-15T14:38:17;14.70;78.40
19188;DHT22;9726;52.198;8.792;2024-02-15T14:40:48;14.80;78.10
19188;DHT22;9726;52.198;8.792;2024-02-15T14:43:24;14.80;78.30
19188;DHT22;9726;52.198;8.792;2024-02-15T14:45:53;14.70;78.60
19188;DHT22;9726;52.198;8.792;2024-02-15T14:48:21;14.70;78.80
19188;DHT22;9726;52.198;8.792;2024-02-15T14:50:48;14.70;79.10
19188;DHT22;9726;52.198;8.792;2024-02-15T14:53:18;14.60;78.90
19188;DHT22;9726;52.198;8.792;2024-02-15T14:55:45;14.60;78.80
19188;DHT22;9726;52.198;8.792;2024-02-15T14:58:14;14.60;78.50
19188;DHT22;9726;52.198;8.792;2024-02-15T15:00:45;14.50;78.40
19188;DHT22;9726;52.198;8.792;2024-02-15T15:03:14;14.60;78.70
19188;DHT22;9726;52.198;8.792;2024-02-15T15:05:42;14.60;78.30
19188;DHT22;9726;52.198;8.792;2024-02-15T15:08:29;14.60;77.90
19188;DHT22;9726;52.198;8.792;2024-02-15T15:11:15;14.70;78.20
19188;DHT22;9726;52.198;8.792;2024-02-15T15:14:02;14.70;77.90
19188;DHT22;9726;52.198;8.792;2024-02-15T15:16:33;14.60;77.70
19188;DHT22;9726;52.198;8.792;2024-02-15T15:19:01;14.70;78.10
19188;DHT22;9726;52.198;8.792;2024-02-15T15:21:30;14.60;77.90
19188;DHT22;9726;52.198;8.792;2024-02-15T15:23:57;14.60;78.40
19188;DHT22;9726;52.198;8.792;2024-02-15T15:26:24;14.60;77.80
19188;DHT22;9726;52.198;8.792;2024-02-15T15:28:52;14.60;78.10
19188;DHT22;9726;52.198;8.792;2024-02-15T15:31:19;14.50;78.20
19188;DHT22;9726;52.198;8.792;2024-02-15T15:33:47;14.50;78.40
19188;DHT22;9726;52.198;8.792;2024-02-15T15:36:17;14.50;77.80
19188;DHT22;9726;52.198;8.792;2024-02-15T15:38:47;14.50;77.60
19188;DHT22;9726;52.198;8.792;2024-02-15T15:41:15;14.40;77.80
19188;DHT22;9726;52.198;8.792;2024-02-15T15:43:43;14.40;78.20
19188;DHT22;9726;52.198;8.792;2024-02-15T15:46:14;14.40;78.10
19188;DHT22;9726;52.198;8.792;2024-02-15T15:48:42;14.30;78.10
19188;DHT22;9726;52.198;8.792;2024-02-15T15:51:11;14.30;78.50
19188;DHT22;9726;52.198;8.792;2024-02-15T15:53:40;14.30;78.60
19188;DHT22;9726;52.198;8.792;2024-02-15T15:56:09;14.30;78.40
19188;DHT22;9726;52.198;8.792;2024-02-15T15:58:36;14.30;78.40
19188;DHT22;9726;52.198;8.792;2024-02-15T16:01:04;14.20;78.90
19188;DHT22;9726;52.198;8.792;2024-02-15T16:03:31;14.10;79.00
19188;DHT22;9726;52.198;8.792;2024-02-15T16:06:02;14.10;78.90
19188;DHT22;9726;52.198;8.792;2024-02-15T16:08:29;14.10;79.10
19188;DHT22;9726;52.198;8.792;2024-02-15T16:10:56;14.00;79.20
19188;DHT22;9726;52.198;8.792;2024-02-15T16:13:24;14.00;79.00